Latest Weather Observations for Barrow Island

IDW60801

Issued at 8:03 am WST Monday 5 December 2016 (issued every 30 minutes, with the page automatically refreshed every 10 minutes)

About weather observations | Map of weather stations | Latest weather observations for WA | Other Formats
Station Details ID: 005094 Name: BARROW ISLAND AIRPORT Lat: -20.87 Lon: 115.41 Height: 6.4 m
Data from the previous 72 hours. | See also: Recent months at Barrow Island
Date/Time
WST
Temp
°C
App
Temp
°C
Dew
Point
°C
Rel
Hum
%
Delta-T
°C
Wind Press
QNH
hPa
Press
MSL
hPa
Rain since
9am
mm
Dir  Spd
km/h
Gust
km/h
Spd
kts
Gust
kts
05/08:00am 24.8 22.7 18.0 66 4.3 SSW 26 33 14 18 1009.5 - 0.0
05/07:30am 24.7 22.4 18.4 68 4.0 SSW 28 32 15 17 1009.4 - 0.0
05/07:00am 23.9 20.6 17.9 69 3.8 SSW 32 37 17 20 1009.2 - 0.0
05/06:30am 23.6 20.3 18.3 72 3.3 SSW 33 41 18 22 1009.2 - 0.0
05/06:00am 23.4 19.5 17.8 71 3.5 SSW 35 41 19 22 1008.8 1008.8 0.0
05/05:30am 23.4 20.0 18.1 72 3.3 SSW 33 39 18 21 1008.8 - 0.0
05/05:00am 23.5 20.6 17.9 71 3.5 SSW 30 33 16 18 1008.5 - 0.0
05/04:30am 23.7 20.6 18.4 72 3.3 SSW 32 39 17 21 1008.5 - 0.0
05/04:00am 23.9 20.8 18.5 72 3.4 SSW 32 37 17 20 1008.3 - 0.0
05/03:30am 24.2 21.2 19.1 73 3.3 SSW 33 41 18 22 1008.3 - 0.0
05/03:00am 24.4 21.7 19.7 75 3.0 SW 33 41 18 22 1008.2 1008.2 0.0
05/02:30am 24.2 21.7 20.1 78 2.7 SW 33 39 18 21 1008.1 - 0.0
05/02:00am 24.4 21.8 19.5 74 3.1 SW 32 35 17 19 1008.1 - 0.0
05/01:30am 24.6 21.6 19.0 71 3.6 SW 33 37 18 20 1008.1 - 0.0
05/01:00am 24.9 22.4 19.7 73 3.4 SW 32 39 17 21 1008.1 - 0.0
05/12:30am 24.5 24.3 20.6 79 2.5 SW 22 30 12 16 1008.4 - 0.0
05/12:00am 24.2 23.4 20.1 78 2.7 WSW 24 28 13 15 1008.5 1008.5 0.0
 
Date/Time
WST
Temp
°C
App
Temp
°C
Dew
Point
°C
Rel
Hum
%
Delta-T
°C
Wind Press
QNH
hPa
Press
MSL
hPa
Rain since
9am
mm
Dir  Spd
km/h
Gust
km/h
Spd
kts
Gust
kts
04/11:30pm 24.2 23.4 20.1 78 2.7 WSW 24 30 13 16 1008.6 - 0.0
04/11:00pm 24.1 22.9 20.0 78 2.6 WSW 26 32 14 17 1008.7 - 0.0
04/10:30pm 24.1 22.0 19.8 77 2.8 WSW 30 39 16 21 1008.6 - 0.0
04/10:00pm 24.1 22.6 19.4 75 3.0 WSW 26 33 14 18 1008.6 - 0.0
04/09:30pm 24.1 21.4 19.2 74 3.1 WSW 32 39 17 21 1008.6 - 0.0
04/09:00pm 24.4 21.7 19.2 73 3.3 WSW 32 39 17 21 1008.4 1008.4 0.0
04/08:30pm 24.6 22.2 19.0 71 3.6 W 30 39 16 21 1008.4 - 0.0
04/08:00pm 24.8 21.8 18.7 69 3.9 W 32 39 17 21 1008.3 - 0.0
04/07:30pm 25.1 22.4 18.5 67 4.2 W 30 37 16 20 1008.0 - 0.0
04/07:00pm 25.2 23.0 18.6 67 4.2 W 28 37 15 20 1008.0 - 0.0
04/06:30pm 25.5 22.7 18.2 64 4.6 W 30 37 16 20 1007.8 - 0.0
04/06:00pm 26.3 23.4 17.9 60 5.3 W 30 37 16 20 1007.4 1007.4 0.0
04/05:30pm 26.9 23.5 16.8 54 6.3 W 30 39 16 21 1007.1 - 0.0
04/05:00pm 27.6 24.4 17.2 53 6.5 W 30 35 16 19 1007.1 - 0.0
04/04:30pm 27.8 24.8 16.7 50 6.9 W 28 35 15 19 1007.2 - 0.0
04/04:00pm 28.1 24.9 17.3 52 6.8 W 30 41 16 22 1007.2 - 0.0
04/03:30pm 27.7 24.5 18.1 56 6.1 W 32 41 17 22 1007.5 - 0.0
04/03:00pm 27.6 24.7 18.0 55 6.1 W 30 39 16 21 1007.6 1007.6 0.0
04/02:30pm 27.7 24.5 18.1 56 6.1 W 32 41 17 22 1007.5 - 0.0
04/02:00pm 27.4 24.3 18.4 58 5.7 WSW 32 39 17 21 1008.0 - 0.0
04/01:30pm 27.4 24.9 18.1 57 5.9 WSW 28 35 15 19 1008.1 - 0.0
04/01:00pm 27.6 24.5 17.5 54 6.4 WSW 30 39 16 21 1008.1 - 0.0
04/12:30pm 27.5 24.9 17.7 55 6.2 WSW 28 37 15 20 1008.4 - 0.0
04/12:00pm 27.3 25.3 18.3 58 5.7 WSW 26 32 14 17 1008.7 1008.7 0.0
04/11:30am 26.6 24.7 17.7 58 5.6 WSW 24 33 13 18 1008.9 - 0.0
04/11:00am 26.1 24.2 17.7 60 5.3 SW 24 32 13 17 1009.0 - 0.0
04/10:30am 26.3 24.9 17.9 60 5.3 SW 22 30 12 16 1009.4 - 0.0
04/10:00am 25.7 23.7 18.4 64 4.6 SW 26 35 14 19 1009.4 - 0.0
04/09:30am 25.3 23.9 18.0 64 4.6 SSW 22 28 12 15 1009.6 - 0.0
04/09:00am 25.4 24.3 18.6 66 4.3 SSW 22 28 12 15 1009.5 1009.5 0.0
04/08:30am 25.0 23.6 18.0 65 4.4 SSW 22 28 12 15 1009.5 - 0.0
04/08:00am 24.6 22.6 18.3 68 4.0 SSW 26 32 14 17 1009.3 - 0.0
04/07:30am 24.1 21.8 18.5 71 3.5 SSW 28 33 15 18 1009.3 - 0.0
04/07:00am 24.3 22.3 19.1 73 3.3 SSW 28 32 15 17 1009.0 - 0.0
04/06:30am 23.5 21.1 19.0 76 2.9 SW 30 37 16 20 1008.9 - 0.0
04/06:00am 23.0 20.3 19.2 79 2.4 SW 32 37 17 20 1008.5 1008.5 0.0
04/05:30am 23.0 20.4 19.4 80 2.3 SW 32 39 17 21 1008.5 - 0.0
04/05:00am 23.0 20.3 19.2 79 2.4 SW 32 37 17 20 1008.5 - 0.0
04/04:30am 23.2 21.4 19.6 80 2.3 WSW 28 33 15 18 1008.5 - 0.0
04/04:00am 23.3 21.6 19.7 80 2.3 WSW 28 33 15 18 1008.5 - 0.0
04/03:30am 23.4 21.7 19.8 80 2.3 WSW 28 33 15 18 1008.2 - 0.0
04/03:00am 23.3 22.3 19.7 80 2.3 WSW 24 30 13 16 1008.1 1008.1 0.0
04/02:30am 23.5 22.1 19.6 79 2.5 WSW 26 33 14 18 1008.3 - 0.0
04/02:00am 23.7 21.9 19.6 78 2.6 SW 28 35 15 19 1008.4 - 0.0
04/01:30am 23.9 21.6 19.4 76 2.9 SW 30 37 16 20 1008.4 - 0.0
04/01:00am 24.0 22.3 19.9 78 2.6 SW 28 33 15 18 1008.5 - 0.0
04/12:30am 24.1 22.2 20.2 79 2.5 WSW 30 37 16 20 1008.8 - 0.0
04/12:00am 24.0 22.5 20.3 80 2.4 WSW 28 35 15 19 1009.0 1009.0 0.0
 
Date/Time
WST
Temp
°C
App
Temp
°C
Dew
Point
°C
Rel
Hum
%
Delta-T
°C
Wind Press
QNH
hPa
Press
MSL
hPa
Rain since
9am
mm
Dir  Spd
km/h
Gust
km/h
Spd
kts
Gust
kts
03/11:30pm 24.1 22.2 20.2 79 2.5 WSW 30 37 16 20 1009.0 - 0.0
03/11:00pm 24.1 22.2 19.4 75 3.0 WSW 28 35 15 19 1009.3 - 0.0
03/10:30pm 24.1 22.6 19.4 75 3.0 WSW 26 35 14 19 1009.2 - 0.0
03/10:00pm 24.3 22.1 19.6 75 3.0 WSW 30 35 16 19 1009.0 - 0.0
03/09:30pm 24.3 21.5 19.1 73 3.3 WSW 32 37 17 20 1008.8 - 0.0
03/09:00pm 24.5 23.0 20.2 77 2.8 W 28 35 15 19 1008.7 1008.7 0.0
03/08:30pm 24.5 21.6 19.3 73 3.3 W 33 39 18 21 1008.6 - 0.0
03/08:00pm 24.6 22.5 19.7 74 3.2 W 30 39 16 21 1008.5 - 0.0
03/07:30pm 24.7 22.6 19.8 74 3.2 W 30 37 16 20 1008.3 - 0.0
03/07:00pm 24.8 22.5 19.4 72 3.5 W 30 37 16 20 1008.0 - 0.0
03/06:30pm 25.5 23.3 19.6 70 3.8 W 30 37 16 20 1007.7 - 0.0
03/06:00pm 26.3 24.0 19.4 66 4.5 W 30 39 16 21 1007.6 1007.6 0.0
03/05:30pm 27.0 24.7 19.4 63 4.9 W 30 37 16 20 1007.4 - 0.0
03/05:00pm 27.3 24.9 19.1 61 5.3 W 30 39 16 21 1007.1 - 0.0
03/04:30pm 27.8 24.9 18.8 58 5.8 W 32 39 17 21 1006.9 - 0.0
03/04:00pm 28.2 25.4 19.1 57 5.9 W 32 39 17 21 1006.8 - 0.0
03/03:30pm 28.5 26.1 19.1 56 6.1 W 30 35 16 19 1007.0 - 0.0
03/03:00pm 28.5 26.5 19.1 56 6.1 W 28 37 15 20 1006.9 1006.9 0.0
03/02:30pm 28.6 26.0 18.7 55 6.4 WSW 30 37 16 20 1007.3 - 0.0
03/02:00pm 28.2 26.0 18.6 56 6.2 WSW 28 39 15 21 1007.5 - 0.0
03/01:30pm 27.9 25.4 19.7 61 5.3 WSW 32 43 17 23 1007.6 - 0.0
03/01:00pm 27.8 25.4 19.1 59 5.6 WSW 30 41 16 22 1008.0 - 0.0
03/12:30pm 27.2 24.7 19.8 64 4.8 SW 32 39 17 21 1008.0 - 0.0
03/12:00pm 27.5 25.4 19.8 63 5.0 WSW 30 39 16 21 1008.3 1008.3 0.0
03/11:30am 27.3 24.9 19.9 64 4.8 WSW 32 39 17 21 1008.4 - 0.0
03/11:00am 27.1 25.7 20.4 66 4.4 SW 28 35 15 19 1008.4 - 0.0
03/10:30am 26.9 25.3 20.7 69 4.1 SW 30 35 16 19 1008.6 - 0.0
03/10:00am 26.8 25.0 21.1 71 3.8 SW 32 39 17 21 1008.6 - 0.0
03/09:30am 26.7 25.2 21.0 71 3.8 SW 30 39 16 21 1008.7 - 0.0
03/09:00am 26.2 24.6 20.7 71 3.6 SW 30 33 16 18 1008.5 1008.5 0.0
03/08:30am 25.8 23.6 20.8 74 3.3 SW 33 43 18 23 1008.4 - 0.0
03/08:00am 25.3 23.0 20.5 75 3.1 SW 33 39 18 21 1008.2 - 0.0
03/07:30am 25.0 23.5 20.3 75 3.1 SW 28 32 15 17 1008.8 - 0.0
03/07:00am 24.6 22.7 20.1 76 2.9 SW 30 33 16 18 1008.5 - 0.0
03/06:30am 23.7 22.3 19.6 78 2.6 SW 26 32 14 17 1008.3 - 0.0
03/06:00am 23.4 20.8 19.8 80 2.3 SW 33 43 18 23 1007.8 1007.8 0.0
03/05:30am 23.2 21.0 19.6 80 2.3 WSW 30 37 16 20 1007.3 - 0.0
03/05:00am 23.2 21.1 19.8 81 2.2 WSW 30 35 16 19 1006.9 - 0.0
03/04:30am 23.3 21.6 19.7 80 2.3 WSW 28 33 15 18 1007.1 - 0.0
03/04:00am 23.5 21.6 20.2 82 2.1 WSW 30 35 16 19 1006.8 - 0.0
03/03:30am 23.6 21.7 20.1 81 2.3 WSW 30 35 16 19 1006.8 - 0.0
03/03:00am 23.7 22.7 20.4 82 2.1 WSW 26 33 14 18 1007.0 1007.0 0.0
03/02:30am 23.7 22.7 20.4 82 2.1 WSW 26 35 14 19 1006.9 - 0.0
03/02:00am 23.7 22.7 20.4 82 2.1 WSW 26 32 14 17 1007.1 - 0.0
03/01:30am 23.9 22.6 20.6 82 2.2 WSW 28 35 15 19 1007.0 - 0.0
03/01:00am 23.8 22.5 20.7 83 2.0 WSW 28 37 15 20 1007.0 - 0.0
03/12:30am 23.9 22.4 21.0 84 1.9 W 30 37 16 20 1007.1 - 0.0
03/12:00am 24.1 22.3 21.2 84 1.9 W 32 37 17 20 1007.2 1007.2 0.0
 
Date/Time
WST
Temp
°C
App
Temp
°C
Dew
Point
°C
Rel
Hum
%
Delta-T
°C
Wind Press
QNH
hPa
Press
MSL
hPa
Rain since
9am
mm
Dir  Spd
km/h
Gust
km/h
Spd
kts
Gust
kts
02/11:30pm 24.2 22.3 21.3 84 1.9 WSW 33 41 18 22 1007.2 - 0.0
02/11:00pm 24.3 22.6 21.4 84 1.9 W 32 37 17 20 1007.4 - 0.0
02/10:30pm 24.4 22.8 21.5 84 1.9 W 32 39 17 21 1007.5 - 0.0
02/10:00pm 24.4 23.5 21.5 84 1.9 W 28 35 15 19 1007.4 - 0.0
02/09:30pm 24.6 23.4 21.5 83 2.1 W 30 35 16 19 1007.2 - 0.0
02/09:00pm 24.7 23.9 21.6 83 2.1 W 28 35 15 19 1007.1 1007.1 0.0
02/08:30pm 24.8 24.0 21.7 83 2.1 W 28 35 15 19 1006.9 - 0.0
02/08:00pm 25.0 24.2 21.7 82 2.2 W 28 35 15 19 1006.6 - 0.0
02/07:30pm 25.0 23.8 21.5 81 2.3 W 30 39 16 21 1006.4 - 0.0
02/07:00pm 25.3 23.8 21.8 81 2.3 W 32 39 17 21 1006.1 - 0.0
02/06:30pm 25.9 24.1 21.6 77 2.9 W 33 43 18 23 1006.1 - 0.0
02/06:00pm 26.7 25.2 21.7 74 3.3 W 32 43 17 23 1006.0 1006.0 0.0
02/05:30pm 27.3 25.6 21.3 69 4.0 W 32 39 17 21 1005.7 - 0.0
02/05:00pm 28.0 26.8 21.5 67 4.3 W 30 37 16 20 1005.7 - 0.0
02/04:30pm 28.9 27.8 21.7 65 4.8 W 30 37 16 20 1005.7 - 0.0
02/04:00pm 29.3 28.3 21.3 62 5.3 W 28 35 15 19 1005.8 - 0.0
02/03:30pm 29.8 28.4 20.4 57 6.2 W 28 35 15 19 1005.9 - 0.0
02/03:00pm 29.0 27.1 20.2 59 5.8 W 30 35 16 19 1006.2 1006.2 0.0
02/02:30pm 28.5 26.8 20.5 62 5.3 WSW 30 39 16 21 1006.6 - 0.0
02/02:00pm 29.2 27.5 20.6 59 5.7 WSW 30 37 16 20 1006.8 - 0.0
02/01:30pm 28.7 27.1 20.7 62 5.3 W 30 37 16 20 1007.1 - 0.0
02/01:00pm 28.2 26.5 20.5 63 5.1 WSW 30 39 16 21 1007.2 - 0.0
02/12:30pm 28.2 27.0 21.5 67 4.5 WSW 30 39 16 21 1007.2 - 0.0
02/12:00pm 27.5 25.3 20.8 67 4.4 SW 33 43 18 23 1007.3 1007.3 0.0
02/11:30am 27.7 26.1 21.5 69 4.1 SW 32 41 17 22 1007.3 - 0.0
02/11:00am 27.4 25.2 20.7 67 4.4 SW 33 41 18 22 1007.3 - 0.0
02/10:30am 27.3 25.3 21.1 69 4.1 SW 33 39 18 21 1007.9 - 0.0
02/10:00am 27.3 25.4 21.3 69 4.0 SW 33 39 18 21 1007.7 - 0.0
02/09:30am 27.1 24.4 20.4 66 4.4 SW 35 39 19 21 1007.7 - 0.0
02/09:00am 26.6 24.0 20.7 70 3.9 SW 35 39 19 21 1007.9 1007.9 0.0
02/08:30am 26.4 24.6 21.2 73 3.4 SW 32 37 17 20 1008.0 - 0.0

Other Formats:

Comma delimited format used in spreadsheet applications
http://www.bom.gov.au/fwo/IDW60801/IDW60801.95304.axf

JavaScript Object Notation format (JSON) in row-major order
http://www.bom.gov.au/fwo/IDW60801/IDW60801.95304.json